createdAt,value
2022-11-07T00:02:15.557Z,51.00
2022-11-07T00:04:44.311Z,44.35
2022-11-07T00:07:12.679Z,50.13
2022-11-07T00:09:41.255Z,56.42
2022-11-07T00:12:09.566Z,57.35
2022-11-07T00:14:38.540Z,56.55
2022-11-07T00:17:08.331Z,51.63
2022-11-07T00:19:36.897Z,54.30
2022-11-07T00:22:05.323Z,47.50
2022-11-07T00:24:33.844Z,48.33
2022-11-07T00:27:02.351Z,42.70
2022-11-07T00:29:30.921Z,52.72
2022-11-07T00:31:59.823Z,51.08
2022-11-07T00:34:28.507Z,58.22
2022-11-07T00:36:56.812Z,50.10
2022-11-07T00:39:25.428Z,60.53
2022-11-07T00:41:53.708Z,53.38
2022-11-07T00:44:23.019Z,56.38
2022-11-07T00:46:51.258Z,58.45
2022-11-07T00:49:19.840Z,63.17
2022-11-07T00:51:48.172Z,76.63
2022-11-07T00:54:16.780Z,87.70
2022-11-07T00:56:45.095Z,85.70
2022-11-07T00:59:14.370Z,97.15
2022-11-07T01:01:42.830Z,123.55
2022-11-07T01:04:31.909Z,111.50
2022-11-07T01:07:01.776Z,89.25
2022-11-07T01:09:30.439Z,68.40
2022-11-07T01:11:58.755Z,62.45
2022-11-07T01:14:27.370Z,53.50
2022-11-07T01:16:55.664Z,51.00
2022-11-07T01:19:25.616Z,61.65
2022-11-07T01:21:54.474Z,56.20
2022-11-07T01:24:23.260Z,51.80
2022-11-07T01:26:52.055Z,58.75
2022-11-07T01:29:20.932Z,94.10
2022-11-07T01:31:49.142Z,64.55
2022-11-07T01:34:18.566Z,65.40
2022-11-07T01:36:47.198Z,56.63
2022-11-07T01:39:16.060Z,58.80
2022-11-07T01:41:44.351Z,69.75
2022-11-07T01:44:13.081Z,89.50
2022-11-07T01:46:45.520Z,80.95
2022-11-07T01:49:29.174Z,101.00
2022-11-07T01:52:08.555Z,70.57
2022-11-07T01:54:42.438Z,77.93
2022-11-07T01:57:17.336Z,72.22
2022-11-07T01:59:46.849Z,70.38
2022-11-07T02:02:15.389Z,66.60
2022-11-07T02:04:44.680Z,68.72
2022-11-07T02:07:21.656Z,56.47
2022-11-07T02:09:53.997Z,56.80
2022-11-07T02:12:24.609Z,54.03
2022-11-07T02:14:54.894Z,48.20
2022-11-07T02:17:23.330Z,60.42
2022-11-07T02:19:54.337Z,51.95
2022-11-07T02:22:41.256Z,56.42
2022-11-07T02:25:16.851Z,51.75
2022-11-07T02:27:48.217Z,61.28
2022-11-07T02:30:20.962Z,47.13
2022-11-07T02:32:49.776Z,44.90
2022-11-07T02:35:41.416Z,56.60
2022-11-07T02:38:14.589Z,66.97
2022-11-07T02:40:51.716Z,55.92
2022-11-07T02:43:23.378Z,59.15
2022-11-07T02:48:20.463Z,57.45
2022-11-07T02:50:48.950Z,61.00
2022-11-07T02:53:17.590Z,60.47
2022-11-07T02:55:46.409Z,60.50
2022-11-07T02:58:14.792Z,60.58
2022-11-07T03:00:43.351Z,64.00
2022-11-07T03:03:12.125Z,59.47
2022-11-07T03:05:41.006Z,53.20
2022-11-07T03:08:09.339Z,68.70
2022-11-07T03:10:38.140Z,57.67
2022-11-07T03:13:06.410Z,62.42
2022-11-07T03:15:35.034Z,61.85
2022-11-07T03:18:03.475Z,59.03
2022-11-07T03:20:32.056Z,58.47
2022-11-07T03:23:00.217Z,50.70
2022-11-07T03:25:29.131Z,69.35
2022-11-07T03:27:58.068Z,54.05
2022-11-07T03:30:26.733Z,58.97
2022-11-07T03:32:55.476Z,49.25
2022-11-07T03:35:24.129Z,72.13
2022-11-07T03:37:52.359Z,60.50
2022-11-07T03:40:21.100Z,55.53
2022-11-07T03:42:49.290Z,63.00
2022-11-07T03:45:18.085Z,58.30
2022-11-07T03:47:47.243Z,57.00
2022-11-07T03:50:19.587Z,69.03
